sensor_id;sensor_type;location;lat;lon;timestamp;P1;durP1;ratioP1;P2;durP2;ratioP2
19587;SDS011;9940;47.252;8.696;2023-04-03T00:00:36;3.30;;;1.08;;
19587;SDS011;9940;47.252;8.696;2023-04-03T00:03:04;1.27;;;1.00;;
19587;SDS011;9940;47.252;8.696;2023-04-03T00:05:30;1.52;;;1.10;;
19587;SDS011;9940;47.252;8.696;2023-04-03T00:07:58;1.75;;;1.00;;
19587;SDS011;9940;47.252;8.696;2023-04-03T00:10:27;1.67;;;1.10;;
19587;SDS011;9940;47.252;8.696;2023-04-03T00:12:55;1.15;;;1.05;;
19587;SDS011;9940;47.252;8.696;2023-04-03T00:15:21;2.03;;;1.20;;
19587;SDS011;9940;47.252;8.696;2023-04-03T00:17:51;1.25;;;1.02;;
19587;SDS011;9940;47.252;8.696;2023-04-03T00:20:17;4.28;;;2.13;;
19587;SDS011;9940;47.252;8.696;2023-04-03T00:22:43;3.20;;;1.98;;
19587;SDS011;9940;47.252;8.696;2023-04-03T00:25:08;2.05;;;1.77;;
19587;SDS011;9940;47.252;8.696;2023-04-03T00:27:36;3.17;;;2.10;;
19587;SDS011;9940;47.252;8.696;2023-04-03T00:30:03;3.40;;;2.25;;
19587;SDS011;9940;47.252;8.696;2023-04-03T00:32:29;3.33;;;1.98;;
19587;SDS011;9940;47.252;8.696;2023-04-03T00:34:55;3.08;;;1.95;;
19587;SDS011;9940;47.252;8.696;2023-04-03T00:37:20;2.50;;;1.90;;
19587;SDS011;9940;47.252;8.696;2023-04-03T00:39:46;2.45;;;1.58;;
19587;SDS011;9940;47.252;8.696;2023-04-03T00:42:11;1.95;;;1.40;;
19587;SDS011;9940;47.252;8.696;2023-04-03T00:47:07;1.35;;;0.82;;
19587;SDS011;9940;47.252;8.696;2023-04-03T00:49:34;2.00;;;1.10;;
19587;SDS011;9940;47.252;8.696;2023-04-03T00:52:01;1.48;;;1.20;;
19587;SDS011;9940;47.252;8.696;2023-04-03T00:54:27;1.67;;;1.20;;
19587;SDS011;9940;47.252;8.696;2023-04-03T00:56:54;1.10;;;0.93;;
19587;SDS011;9940;47.252;8.696;2023-04-03T00:59:24;1.00;;;0.80;;
19587;SDS011;9940;47.252;8.696;2023-04-03T01:01:56;1.00;;;0.80;;
19587;SDS011;9940;47.252;8.696;2023-04-03T01:04:31;1.10;;;0.90;;
19587;SDS011;9940;47.252;8.696;2023-04-03T01:07:00;1.00;;;0.80;;
19587;SDS011;9940;47.252;8.696;2023-04-03T01:09:29;1.30;;;1.10;;
19587;SDS011;9940;47.252;8.696;2023-04-03T01:12:12;1.98;;;0.93;;
19587;SDS011;9940;47.252;8.696;2023-04-03T01:14:44;1.77;;;1.02;;
19587;SDS011;9940;47.252;8.696;2023-04-03T01:17:26;1.50;;;1.10;;
19587;SDS011;9940;47.252;8.696;2023-04-03T01:25:15;3.22;;;1.42;;
19587;SDS011;9940;47.252;8.696;2023-04-03T01:27:44;1.50;;;1.20;;
19587;SDS011;9940;47.252;8.696;2023-04-03T01:30:14;2.17;;;1.30;;
19587;SDS011;9940;47.252;8.696;2023-04-03T01:32:42;2.10;;;1.55;;
19587;SDS011;9940;47.252;8.696;2023-04-03T01:35:10;3.85;;;1.38;;
19587;SDS011;9940;47.252;8.696;2023-04-03T01:37:39;2.83;;;1.70;;
19587;SDS011;9940;47.252;8.696;2023-04-03T01:40:05;2.00;;;1.60;;
19587;SDS011;9940;47.252;8.696;2023-04-03T01:42:32;2.90;;;1.88;;
19587;SDS011;9940;47.252;8.696;2023-04-03T01:44:59;1.98;;;1.52;;
19587;SDS011;9940;47.252;8.696;2023-04-03T01:47:25;2.33;;;1.52;;
19587;SDS011;9940;47.252;8.696;2023-04-03T01:49:54;2.67;;;1.55;;
19587;SDS011;9940;47.252;8.696;2023-04-03T01:52:26;2.42;;;1.70;;
19587;SDS011;9940;47.252;8.696;2023-04-03T01:54:52;2.78;;;1.20;;
19587;SDS011;9940;47.252;8.696;2023-04-03T01:57:22;1.83;;;1.20;;
19587;SDS011;9940;47.252;8.696;2023-04-03T01:59:50;1.30;;;1.20;;
19587;SDS011;9940;47.252;8.696;2023-04-03T02:02:18;1.70;;;1.20;;
19587;SDS011;9940;47.252;8.696;2023-04-03T02:04:45;2.25;;;1.40;;
19587;SDS011;9940;47.252;8.696;2023-04-03T02:07:11;2.38;;;1.30;;
19587;SDS011;9940;47.252;8.696;2023-04-03T02:09:37;2.88;;;1.70;;
19587;SDS011;9940;47.252;8.696;2023-04-03T02:12:02;2.00;;;1.63;;
19587;SDS011;9940;47.252;8.696;2023-04-03T02:14:30;2.13;;;1.60;;
19587;SDS011;9940;47.252;8.696;2023-04-03T02:17:01;2.08;;;1.60;;
19587;SDS011;9940;47.252;8.696;2023-04-03T02:19:34;2.30;;;1.73;;
19587;SDS011;9940;47.252;8.696;2023-04-03T02:22:03;2.97;;;1.52;;
19587;SDS011;9940;47.252;8.696;2023-04-03T02:24:29;2.47;;;1.90;;
19587;SDS011;9940;47.252;8.696;2023-04-03T02:27:00;4.20;;;1.77;;
19587;SDS011;9940;47.252;8.696;2023-04-03T02:29:25;2.00;;;1.60;;
19587;SDS011;9940;47.252;8.696;2023-04-03T02:31:53;2.05;;;1.67;;
19587;SDS011;9940;47.252;8.696;2023-04-03T02:34:19;3.50;;;1.75;;
19587;SDS011;9940;47.252;8.696;2023-04-03T02:36:45;2.40;;;1.75;;
19587;SDS011;9940;47.252;8.696;2023-04-03T02:39:13;2.75;;;1.60;;
19587;SDS011;9940;47.252;8.696;2023-04-03T02:41:41;2.40;;;1.70;;
19587;SDS011;9940;47.252;8.696;2023-04-03T02:44:08;3.80;;;1.90;;
19587;SDS011;9940;47.252;8.696;2023-04-03T02:46:37;2.65;;;1.80;;
19587;SDS011;9940;47.252;8.696;2023-04-03T02:49:05;1.65;;;1.52;;
19587;SDS011;9940;47.252;8.696;2023-04-03T02:51:31;2.78;;;2.03;;
19587;SDS011;9940;47.252;8.696;2023-04-03T02:53:57;2.83;;;2.15;;
19587;SDS011;9940;47.252;8.696;2023-04-03T02:56:22;2.63;;;2.08;;
19587;SDS011;9940;47.252;8.696;2023-04-03T02:58:48;2.40;;;1.80;;
19587;SDS011;9940;47.252;8.696;2023-04-03T03:01:14;3.97;;;2.30;;
19587;SDS011;9940;47.252;8.696;2023-04-03T03:03:40;3.10;;;2.10;;
19587;SDS011;9940;47.252;8.696;2023-04-03T03:06:07;3.60;;;2.40;;
19587;SDS011;9940;47.252;8.696;2023-04-03T03:08:34;3.95;;;2.58;;
19587;SDS011;9940;47.252;8.696;2023-04-03T03:11:00;3.38;;;2.10;;
19587;SDS011;9940;47.252;8.696;2023-04-03T03:13:29;3.65;;;2.60;;
19587;SDS011;9940;47.252;8.696;2023-04-03T03:16:00;3.42;;;2.40;;
19587;SDS011;9940;47.252;8.696;2023-04-03T03:18:29;4.93;;;2.53;;
19587;SDS011;9940;47.252;8.696;2023-04-03T03:20:55;3.30;;;2.30;;
19587;SDS011;9940;47.252;8.696;2023-04-03T03:23:22;3.15;;;2.30;;
19587;SDS011;9940;47.252;8.696;2023-04-03T03:25:53;3.75;;;2.40;;
19587;SDS011;9940;47.252;8.696;2023-04-03T03:28:32;2.83;;;2.13;;
19587;SDS011;9940;47.252;8.696;2023-04-03T03:30:58;3.03;;;2.13;;
19587;SDS011;9940;47.252;8.696;2023-04-03T03:33:24;2.72;;;1.85;;
19587;SDS011;9940;47.252;8.696;2023-04-03T03:35:53;2.42;;;1.83;;
19587;SDS011;9940;47.252;8.696;2023-04-03T03:38:20;4.85;;;2.25;;
19587;SDS011;9940;47.252;8.696;2023-04-03T03:40:49;3.83;;;2.50;;
19587;SDS011;9940;47.252;8.696;2023-04-03T03:43:16;2.72;;;2.00;;
19587;SDS011;9940;47.252;8.696;2023-04-03T03:45:45;2.85;;;2.17;;
19587;SDS011;9940;47.252;8.696;2023-04-03T03:48:15;4.13;;;2.28;;
19587;SDS011;9940;47.252;8.696;2023-04-03T03:50:40;2.67;;;2.20;;
19587;SDS011;9940;47.252;8.696;2023-04-03T03:53:06;2.42;;;2.13;;
19587;SDS011;9940;47.252;8.696;2023-04-03T03:55:34;3.17;;;2.25;;
19587;SDS011;9940;47.252;8.696;2023-04-03T03:58:02;4.03;;;2.53;;
19587;SDS011;9940;47.252;8.696;2023-04-03T04:00:28;3.60;;;2.58;;
19587;SDS011;9940;47.252;8.696;2023-04-03T04:02:55;3.08;;;2.13;;
19587;SDS011;9940;47.252;8.696;2023-04-03T04:05:21;4.05;;;2.70;;
19587;SDS011;9940;47.252;8.696;2023-04-03T04:07:48;3.42;;;2.53;;
19587;SDS011;9940;47.252;8.696;2023-04-03T04:10:14;4.47;;;2.78;;
19587;SDS011;9940;47.252;8.696;2023-04-03T04:12:45;4.22;;;3.00;;
19587;SDS011;9940;47.252;8.696;2023-04-03T04:15:10;4.22;;;2.92;;
19587;SDS011;9940;47.252;8.696;2023-04-03T04:17:36;6.35;;;3.30;;
19587;SDS011;9940;47.252;8.696;2023-04-03T04:20:04;3.90;;;2.85;;
19587;SDS011;9940;47.252;8.696;2023-04-03T04:22:30;4.50;;;2.88;;
19587;SDS011;9940;47.252;8.696;2023-04-03T04:24:56;4.05;;;2.67;;
19587;SDS011;9940;47.252;8.696;2023-04-03T04:27:22;5.65;;;3.22;;
19587;SDS011;9940;47.252;8.696;2023-04-03T04:29:47;5.80;;;3.33;;
19587;SDS011;9940;47.252;8.696;2023-04-03T04:32:15;4.40;;;2.90;;
19587;SDS011;9940;47.252;8.696;2023-04-03T04:34:41;3.33;;;2.55;;
19587;SDS011;9940;47.252;8.696;2023-04-03T04:37:06;3.47;;;2.63;;
19587;SDS011;9940;47.252;8.696;2023-04-03T04:39:34;3.58;;;3.00;;
19587;SDS011;9940;47.252;8.696;2023-04-03T04:42:02;4.80;;;3.15;;
19587;SDS011;9940;47.252;8.696;2023-04-03T04:44:28;5.05;;;2.90;;
19587;SDS011;9940;47.252;8.696;2023-04-03T04:46:54;8.07;;;3.00;;
19587;SDS011;9940;47.252;8.696;2023-04-03T04:49:19;5.28;;;3.20;;
19587;SDS011;9940;47.252;8.696;2023-04-03T04:51:47;3.65;;;2.95;;
19587;SDS011;9940;47.252;8.696;2023-04-03T04:54:13;3.95;;;3.00;;
19587;SDS011;9940;47.252;8.696;2023-04-03T04:56:38;3.70;;;2.60;;
19587;SDS011;9940;47.252;8.696;2023-04-03T04:59:04;4.38;;;2.83;;
19587;SDS011;9940;47.252;8.696;2023-04-03T05:01:30;4.57;;;2.97;;
19587;SDS011;9940;47.252;8.696;2023-04-03T05:03:58;3.53;;;2.40;;
19587;SDS011;9940;47.252;8.696;2023-04-03T05:06:26;5.78;;;3.33;;
19587;SDS011;9940;47.252;8.696;2023-04-03T05:08:51;3.85;;;2.72;;
19587;SDS011;9940;47.252;8.696;2023-04-03T05:11:17;4.63;;;3.45;;
19587;SDS011;9940;47.252;8.696;2023-04-03T05:13:45;3.88;;;2.42;;
19587;SDS011;9940;47.252;8.696;2023-04-03T05:16:13;4.05;;;2.58;;
19587;SDS011;9940;47.252;8.696;2023-04-03T05:18:41;5.95;;;2.70;;
19587;SDS011;9940;47.252;8.696;2023-04-03T05:21:06;4.78;;;2.97;;
19587;SDS011;9940;47.252;8.696;2023-04-03T05:23:32;5.25;;;3.17;;
19587;SDS011;9940;47.252;8.696;2023-04-03T05:26:00;5.35;;;3.38;;
19587;SDS011;9940;47.252;8.696;2023-04-03T05:28:26;4.30;;;3.05;;
19587;SDS011;9940;47.252;8.696;2023-04-03T05:30:55;4.47;;;2.75;;
19587;SDS011;9940;47.252;8.696;2023-04-03T05:33:22;5.18;;;3.53;;
19587;SDS011;9940;47.252;8.696;2023-04-03T05:35:48;5.90;;;3.47;;
19587;SDS011;9940;47.252;8.696;2023-04-03T05:38:14;5.00;;;3.33;;
19587;SDS011;9940;47.252;8.696;2023-04-03T05:40:40;6.55;;;3.30;;
19587;SDS011;9940;47.252;8.696;2023-04-03T05:43:06;7.53;;;3.30;;
19587;SDS011;9940;47.252;8.696;2023-04-03T05:45:36;5.45;;;3.22;;
19587;SDS011;9940;47.252;8.696;2023-04-03T05:48:02;4.82;;;3.20;;
19587;SDS011;9940;47.252;8.696;2023-04-03T05:50:27;6.68;;;3.33;;
19587;SDS011;9940;47.252;8.696;2023-04-03T05:52:56;6.45;;;3.42;;
19587;SDS011;9940;47.252;8.696;2023-04-03T05:55:23;8.45;;;3.55;;
19587;SDS011;9940;47.252;8.696;2023-04-03T05:57:49;6.35;;;3.53;;
19587;SDS011;9940;47.252;8.696;2023-04-03T06:00:15;6.32;;;4.07;;
19587;SDS011;9940;47.252;8.696;2023-04-03T06:02:46;9.02;;;3.70;;
19587;SDS011;9940;47.252;8.696;2023-04-03T06:05:11;7.22;;;3.42;;
19587;SDS011;9940;47.252;8.696;2023-04-03T06:07:39;5.35;;;3.63;;
19587;SDS011;9940;47.252;8.696;2023-04-03T06:10:05;6.35;;;3.72;;
19587;SDS011;9940;47.252;8.696;2023-04-03T06:12:35;7.75;;;4.30;;
19587;SDS011;9940;47.252;8.696;2023-04-03T06:15:03;6.47;;;4.05;;
19587;SDS011;9940;47.252;8.696;2023-04-03T06:17:29;5.45;;;3.60;;
19587;SDS011;9940;47.252;8.696;2023-04-03T06:19:55;6.13;;;3.78;;
19587;SDS011;9940;47.252;8.696;2023-04-03T06:22:23;6.20;;;3.28;;
19587;SDS011;9940;47.252;8.696;2023-04-03T06:24:50;5.00;;;3.50;;
19587;SDS011;9940;47.252;8.696;2023-04-03T06:27:18;6.22;;;4.13;;
19587;SDS011;9940;47.252;8.696;2023-04-03T06:29:46;6.85;;;3.92;;
19587;SDS011;9940;47.252;8.696;2023-04-03T06:32:14;5.68;;;3.67;;
19587;SDS011;9940;47.252;8.696;2023-04-03T06:34:41;5.88;;;3.30;;
19587;SDS011;9940;47.252;8.696;2023-04-03T06:37:10;6.38;;;3.15;;
19587;SDS011;9940;47.252;8.696;2023-04-03T06:39:40;8.68;;;3.92;;
19587;SDS011;9940;47.252;8.696;2023-04-03T06:42:06;6.57;;;3.55;;
19587;SDS011;9940;47.252;8.696;2023-04-03T06:44:32;7.20;;;3.65;;
19587;SDS011;9940;47.252;8.696;2023-04-03T06:47:00;6.97;;;3.35;;
19587;SDS011;9940;47.252;8.696;2023-04-03T06:49:30;6.82;;;4.15;;
19587;SDS011;9940;47.252;8.696;2023-04-03T06:51:56;6.20;;;3.63;;
19587;SDS011;9940;47.252;8.696;2023-04-03T06:54:22;5.85;;;3.22;;
19587;SDS011;9940;47.252;8.696;2023-04-03T06:56:48;6.18;;;3.45;;
19587;SDS011;9940;47.252;8.696;2023-04-03T06:59:14;6.22;;;3.75;;
19587;SDS011;9940;47.252;8.696;2023-04-03T07:01:40;6.28;;;3.38;;
19587;SDS011;9940;47.252;8.696;2023-04-03T07:04:07;5.28;;;3.70;;
19587;SDS011;9940;47.252;8.696;2023-04-03T07:06:33;5.55;;;3.35;;
19587;SDS011;9940;47.252;8.696;2023-04-03T07:09:00;6.32;;;3.35;;
19587;SDS011;9940;47.252;8.696;2023-04-03T07:11:28;8.13;;;3.78;;
19587;SDS011;9940;47.252;8.696;2023-04-03T07:13:54;6.45;;;3.22;;
19587;SDS011;9940;47.252;8.696;2023-04-03T07:16:20;6.10;;;3.63;;
19587;SDS011;9940;47.252;8.696;2023-04-03T07:18:46;4.90;;;3.50;;
19587;SDS011;9940;47.252;8.696;2023-04-03T07:21:12;6.13;;;3.63;;
19587;SDS011;9940;47.252;8.696;2023-04-03T07:23:40;5.05;;;3.38;;
19587;SDS011;9940;47.252;8.696;2023-04-03T07:26:08;6.80;;;3.58;;
19587;SDS011;9940;47.252;8.696;2023-04-03T07:28:34;5.35;;;2.97;;
19587;SDS011;9940;47.252;8.696;2023-04-03T07:31:01;6.13;;;3.70;;
19587;SDS011;9940;47.252;8.696;2023-04-03T07:33:33;5.97;;;3.13;;
19587;SDS011;9940;47.252;8.696;2023-04-03T07:36:00;5.63;;;3.40;;
19587;SDS011;9940;47.252;8.696;2023-04-03T07:38:26;5.50;;;3.45;;
19587;SDS011;9940;47.252;8.696;2023-04-03T07:40:52;6.30;;;3.58;;
19587;SDS011;9940;47.252;8.696;2023-04-03T07:43:20;6.28;;;3.17;;
19587;SDS011;9940;47.252;8.696;2023-04-03T07:45:47;5.57;;;3.45;;
19587;SDS011;9940;47.252;8.696;2023-04-03T07:48:16;5.15;;;3.13;;
19587;SDS011;9940;47.252;8.696;2023-04-03T07:50:43;5.35;;;3.30;;
19587;SDS011;9940;47.252;8.696;2023-04-03T07:53:09;6.43;;;3.22;;
19587;SDS011;9940;47.252;8.696;2023-04-03T07:55:35;4.70;;;3.10;;
19587;SDS011;9940;47.252;8.696;2023-04-03T08:00:39;4.53;;;3.17;;
19587;SDS011;9940;47.252;8.696;2023-04-03T08:03:05;4.95;;;3.38;;
19587;SDS011;9940;47.252;8.696;2023-04-03T08:05:36;5.75;;;3.30;;
19587;SDS011;9940;47.252;8.696;2023-04-03T08:08:05;5.40;;;3.35;;
19587;SDS011;9940;47.252;8.696;2023-04-03T08:10:34;4.30;;;3.08;;
19587;SDS011;9940;47.252;8.696;2023-04-03T08:13:01;4.70;;;3.03;;
19587;SDS011;9940;47.252;8.696;2023-04-03T08:15:29;4.80;;;3.00;;
19587;SDS011;9940;47.252;8.696;2023-04-03T08:17:58;5.85;;;3.53;;
19587;SDS011;9940;47.252;8.696;2023-04-03T08:20:25;5.80;;;3.50;;
19587;SDS011;9940;47.252;8.696;2023-04-03T08:22:54;4.85;;;3.10;;
19587;SDS011;9940;47.252;8.696;2023-04-03T08:25:19;5.22;;;3.45;;
19587;SDS011;9940;47.252;8.696;2023-04-03T08:27:47;5.63;;;3.50;;
19587;SDS011;9940;47.252;8.696;2023-04-03T08:30:13;5.28;;;3.15;;
19587;SDS011;9940;47.252;8.696;2023-04-03T08:32:39;4.88;;;2.97;;
19587;SDS011;9940;47.252;8.696;2023-04-03T08:35:07;6.45;;;3.03;;
19587;SDS011;9940;47.252;8.696;2023-04-03T08:37:36;7.90;;;3.00;;
19587;SDS011;9940;47.252;8.696;2023-04-03T08:40:07;5.60;;;2.90;;
19587;SDS011;9940;47.252;8.696;2023-04-03T08:43:26;5.13;;;3.13;;
19587;SDS011;9940;47.252;8.696;2023-04-03T08:48:15;6.00;;;3.58;;
19587;SDS011;9940;47.252;8.696;2023-04-03T08:50:46;4.25;;;2.90;;
19587;SDS011;9940;47.252;8.696;2023-04-03T08:53:16;5.72;;;3.25;;
19587;SDS011;9940;47.252;8.696;2023-04-03T08:55:46;5.95;;;3.55;;
19587;SDS011;9940;47.252;8.696;2023-04-03T09:00:46;4.47;;;3.33;;
19587;SDS011;9940;47.252;8.696;2023-04-03T09:03:20;6.03;;;3.00;;
19587;SDS011;9940;47.252;8.696;2023-04-03T09:08:22;4.53;;;2.88;;
19587;SDS011;9940;47.252;8.696;2023-04-03T09:10:48;3.95;;;2.70;;
19587;SDS011;9940;47.252;8.696;2023-04-03T09:16:12;4.22;;;2.90;;
19587;SDS011;9940;47.252;8.696;2023-04-03T09:19:21;4.22;;;2.90;;
19587;SDS011;9940;47.252;8.696;2023-04-03T09:24:37;7.63;;;3.90;;
19587;SDS011;9940;47.252;8.696;2023-04-03T09:27:09;6.43;;;3.40;;
19587;SDS011;9940;47.252;8.696;2023-04-03T09:29:42;4.28;;;2.55;;
19587;SDS011;9940;47.252;8.696;2023-04-03T09:34:54;5.45;;;3.00;;
19587;SDS011;9940;47.252;8.696;2023-04-03T09:37:32;5.13;;;3.13;;
19587;SDS011;9940;47.252;8.696;2023-04-03T09:40:06;4.80;;;3.28;;
19587;SDS011;9940;47.252;8.696;2023-04-03T09:42:59;6.25;;;2.95;;
19587;SDS011;9940;47.252;8.696;2023-04-03T09:45:45;3.88;;;2.85;;
19587;SDS011;9940;47.252;8.696;2023-04-03T09:50:41;4.25;;;2.70;;
19587;SDS011;9940;47.252;8.696;2023-04-03T09:53:38;6.65;;;3.30;;
19587;SDS011;9940;47.252;8.696;2023-04-03T09:59:06;4.10;;;2.42;;
19587;SDS011;9940;47.252;8.696;2023-04-03T10:01:39;4.32;;;2.83;;
19587;SDS011;9940;47.252;8.696;2023-04-03T10:04:08;5.28;;;3.38;;
19587;SDS011;9940;47.252;8.696;2023-04-03T10:06:36;6.10;;;3.22;;
19587;SDS011;9940;47.252;8.696;2023-04-03T10:09:10;4.72;;;3.13;;
19587;SDS011;9940;47.252;8.696;2023-04-03T10:11:59;3.92;;;2.97;;
19587;SDS011;9940;47.252;8.696;2023-04-03T10:14:40;4.80;;;3.28;;
19587;SDS011;9940;47.252;8.696;2023-04-03T10:17:35;4.93;;;3.25;;
19587;SDS011;9940;47.252;8.696;2023-04-03T10:41:13;7.10;;;4.22;;
19587;SDS011;9940;47.252;8.696;2023-04-03T10:46:52;5.65;;;3.72;;
19587;SDS011;9940;47.252;8.696;2023-04-03T10:49:41;5.72;;;3.72;;
19587;SDS011;9940;47.252;8.696;2023-04-03T10:52:52;5.57;;;3.42;;
19587;SDS011;9940;47.252;8.696;2023-04-03T10:58:34;4.38;;;3.05;;
19587;SDS011;9940;47.252;8.696;2023-04-03T11:01:01;6.18;;;3.45;;
19587;SDS011;9940;47.252;8.696;2023-04-03T11:03:34;6.05;;;3.65;;
19587;SDS011;9940;47.252;8.696;2023-04-03T11:06:06;5.22;;;3.33;;
19587;SDS011;9940;47.252;8.696;2023-04-03T11:11:13;5.28;;;3.30;;
19587;SDS011;9940;47.252;8.696;2023-04-03T11:14:01;4.18;;;2.85;;
19587;SDS011;9940;47.252;8.696;2023-04-03T11:16:45;5.47;;;3.10;;
19587;SDS011;9940;47.252;8.696;2023-04-03T11:19:18;5.35;;;2.72;;
19587;SDS011;9940;47.252;8.696;2023-04-03T11:24:44;4.90;;;3.05;;
19587;SDS011;9940;47.252;8.696;2023-04-03T11:27:19;6.53;;;3.30;;
19587;SDS011;9940;47.252;8.696;2023-04-03T11:29:50;4.68;;;3.20;;
19587;SDS011;9940;47.252;8.696;2023-04-03T11:34:59;6.22;;;3.25;;
19587;SDS011;9940;47.252;8.696;2023-04-03T11:37:34;3.67;;;2.90;;
19587;SDS011;9940;47.252;8.696;2023-04-03T11:40:07;3.85;;;3.08;;
19587;SDS011;9940;47.252;8.696;2023-04-03T11:43:33;6.43;;;3.33;;
19587;SDS011;9940;47.252;8.696;2023-04-03T11:53:30;3.70;;;2.80;;
19587;SDS011;9940;47.252;8.696;2023-04-03T11:59:38;4.32;;;2.90;;
19587;SDS011;9940;47.252;8.696;2023-04-03T12:04:12;3.97;;;3.13;;
19587;SDS011;9940;47.252;8.696;2023-04-03T12:06:49;5.38;;;3.13;;
19587;SDS011;9940;47.252;8.696;2023-04-03T12:09:25;6.78;;;2.83;;
19587;SDS011;9940;47.252;8.696;2023-04-03T12:11:56;4.85;;;2.90;;
19587;SDS011;9940;47.252;8.696;2023-04-03T12:14:27;3.75;;;2.55;;
19587;SDS011;9940;47.252;8.696;2023-04-03T12:16:54;5.03;;;2.85;;
19587;SDS011;9940;47.252;8.696;2023-04-03T12:24:33;5.32;;;2.40;;
19587;SDS011;9940;47.252;8.696;2023-04-03T12:30:01;4.63;;;2.72;;
19587;SDS011;9940;47.252;8.696;2023-04-03T12:35:30;3.72;;;2.38;;
19587;SDS011;9940;47.252;8.696;2023-04-03T12:48:33;3.97;;;2.72;;
19587;SDS011;9940;47.252;8.696;2023-04-03T12:51:04;4.60;;;2.28;;
19587;SDS011;9940;47.252;8.696;2023-04-03T12:53:34;4.88;;;2.70;;
19587;SDS011;9940;47.252;8.696;2023-04-03T12:58:51;4.60;;;2.83;;
19587;SDS011;9940;47.252;8.696;2023-04-03T13:01:20;5.88;;;3.30;;
19587;SDS011;9940;47.252;8.696;2023-04-03T13:03:49;4.32;;;2.78;;
19587;SDS011;9940;47.252;8.696;2023-04-03T13:08:57;4.22;;;2.63;;
19587;SDS011;9940;47.252;8.696;2023-04-03T13:11:25;3.67;;;2.85;;
19587;SDS011;9940;47.252;8.696;2023-04-03T13:14:00;4.22;;;2.78;;
19587;SDS011;9940;47.252;8.696;2023-04-03T13:16:32;4.25;;;2.92;;
19587;SDS011;9940;47.252;8.696;2023-04-03T13:18:58;4.85;;;3.05;;
19587;SDS011;9940;47.252;8.696;2023-04-03T13:21:30;3.63;;;2.88;;
19587;SDS011;9940;47.252;8.696;2023-04-03T13:24:01;3.83;;;2.63;;
19587;SDS011;9940;47.252;8.696;2023-04-03T13:26:29;3.75;;;2.75;;
19587;SDS011;9940;47.252;8.696;2023-04-03T13:28:59;4.55;;;3.10;;
19587;SDS011;9940;47.252;8.696;2023-04-03T13:31:38;5.53;;;2.90;;
19587;SDS011;9940;47.252;8.696;2023-04-03T13:36:38;5.50;;;3.17;;
19587;SDS011;9940;47.252;8.696;2023-04-03T13:39:28;5.22;;;3.15;;
19587;SDS011;9940;47.252;8.696;2023-04-03T13:41:52;4.68;;;3.20;;
19587;SDS011;9940;47.252;8.696;2023-04-03T13:46:53;4.72;;;2.90;;
19587;SDS011;9940;47.252;8.696;2023-04-03T13:54:56;4.07;;;2.97;;
19587;SDS011;9940;47.252;8.696;2023-04-03T13:57:27;4.47;;;3.25;;
19587;SDS011;9940;47.252;8.696;2023-04-03T13:59:53;5.25;;;3.50;;
19587;SDS011;9940;47.252;8.696;2023-04-03T14:02:38;4.05;;;3.30;;
19587;SDS011;9940;47.252;8.696;2023-04-03T14:05:06;3.78;;;2.75;;
19587;SDS011;9940;47.252;8.696;2023-04-03T14:07:37;5.85;;;2.92;;
19587;SDS011;9940;47.252;8.696;2023-04-03T14:10:07;4.22;;;2.70;;
19587;SDS011;9940;47.252;8.696;2023-04-03T14:12:35;4.50;;;2.85;;
19587;SDS011;9940;47.252;8.696;2023-04-03T14:15:03;4.38;;;2.60;;
19587;SDS011;9940;47.252;8.696;2023-04-03T14:17:32;4.95;;;2.75;;
19587;SDS011;9940;47.252;8.696;2023-04-03T14:20:00;4.68;;;2.90;;
19587;SDS011;9940;47.252;8.696;2023-04-03T14:22:30;5.18;;;3.17;;
19587;SDS011;9940;47.252;8.696;2023-04-03T14:24:58;5.55;;;3.03;;
19587;SDS011;9940;47.252;8.696;2023-04-03T14:27:26;4.57;;;3.33;;
19587;SDS011;9940;47.252;8.696;2023-04-03T14:30:22;4.63;;;3.05;;
19587;SDS011;9940;47.252;8.696;2023-04-03T14:32:53;5.43;;;2.88;;
19587;SDS011;9940;47.252;8.696;2023-04-03T14:35:19;6.75;;;3.13;;
19587;SDS011;9940;47.252;8.696;2023-04-03T14:37:48;4.35;;;2.97;;
19587;SDS011;9940;47.252;8.696;2023-04-03T14:40:19;3.25;;;2.80;;
19587;SDS011;9940;47.252;8.696;2023-04-03T14:45:16;3.42;;;2.70;;
19587;SDS011;9940;47.252;8.696;2023-04-03T14:47:50;5.28;;;3.47;;
19587;SDS011;9940;47.252;8.696;2023-04-03T14:50:20;4.70;;;2.50;;
19587;SDS011;9940;47.252;8.696;2023-04-03T14:52:51;5.00;;;2.47;;
19587;SDS011;9940;47.252;8.696;2023-04-03T14:55:22;4.60;;;2.72;;
19587;SDS011;9940;47.252;8.696;2023-04-03T14:57:49;6.05;;;2.95;;
19587;SDS011;9940;47.252;8.696;2023-04-03T15:00:16;3.85;;;2.65;;
19587;SDS011;9940;47.252;8.696;2023-04-03T15:02:45;4.28;;;2.60;;
19587;SDS011;9940;47.252;8.696;2023-04-03T15:05:12;4.93;;;2.47;;
19587;SDS011;9940;47.252;8.696;2023-04-03T15:07:49;3.42;;;2.53;;
19587;SDS011;9940;47.252;8.696;2023-04-03T15:12:47;4.50;;;2.90;;
19587;SDS011;9940;47.252;8.696;2023-04-03T15:15:14;3.40;;;2.42;;
19587;SDS011;9940;47.252;8.696;2023-04-03T15:17:42;4.97;;;2.90;;
19587;SDS011;9940;47.252;8.696;2023-04-03T15:20:16;4.40;;;3.28;;
19587;SDS011;9940;47.252;8.696;2023-04-03T15:22:45;3.63;;;2.85;;
19587;SDS011;9940;47.252;8.696;2023-04-03T15:25:11;3.47;;;2.50;;
19587;SDS011;9940;47.252;8.696;2023-04-03T15:27:37;5.13;;;2.75;;
19587;SDS011;9940;47.252;8.696;2023-04-03T15:30:08;4.20;;;2.63;;
19587;SDS011;9940;47.252;8.696;2023-04-03T15:32:40;4.13;;;2.45;;
19587;SDS011;9940;47.252;8.696;2023-04-03T15:35:06;5.50;;;2.70;;
19587;SDS011;9940;47.252;8.696;2023-04-03T15:37:31;3.67;;;2.47;;
19587;SDS011;9940;47.252;8.696;2023-04-03T15:39:57;4.55;;;2.33;;
19587;SDS011;9940;47.252;8.696;2023-04-03T15:42:23;4.93;;;2.53;;
19587;SDS011;9940;47.252;8.696;2023-04-03T15:44:49;4.20;;;2.70;;
19587;SDS011;9940;47.252;8.696;2023-04-03T15:47:17;4.78;;;2.50;;
19587;SDS011;9940;47.252;8.696;2023-04-03T15:49:43;4.40;;;2.80;;
19587;SDS011;9940;47.252;8.696;2023-04-03T15:52:11;3.40;;;2.47;;
19587;SDS011;9940;47.252;8.696;2023-04-03T15:54:37;3.97;;;2.42;;
19587;SDS011;9940;47.252;8.696;2023-04-03T15:57:02;3.75;;;2.75;;
19587;SDS011;9940;47.252;8.696;2023-04-03T15:59:28;3.58;;;2.78;;
19587;SDS011;9940;47.252;8.696;2023-04-03T16:01:55;4.95;;;2.75;;
19587;SDS011;9940;47.252;8.696;2023-04-03T16:04:22;3.72;;;2.38;;
19587;SDS011;9940;47.252;8.696;2023-04-03T16:06:49;3.20;;;2.40;;
19587;SDS011;9940;47.252;8.696;2023-04-03T16:09:15;2.80;;;2.50;;
19587;SDS011;9940;47.252;8.696;2023-04-03T16:11:43;5.20;;;2.60;;
19587;SDS011;9940;47.252;8.696;2023-04-03T16:14:11;5.78;;;2.30;;
19587;SDS011;9940;47.252;8.696;2023-04-03T16:16:37;4.50;;;3.05;;
19587;SDS011;9940;47.252;8.696;2023-04-03T16:19:05;8.50;;;2.95;;
19587;SDS011;9940;47.252;8.696;2023-04-03T16:21:35;3.72;;;2.63;;
19587;SDS011;9940;47.252;8.696;2023-04-03T16:24:01;3.42;;;2.83;;
19587;SDS011;9940;47.252;8.696;2023-04-03T16:26:27;4.05;;;2.70;;
19587;SDS011;9940;47.252;8.696;2023-04-03T16:28:53;5.18;;;2.80;;
19587;SDS011;9940;47.252;8.696;2023-04-03T16:31:21;5.55;;;2.75;;
19587;SDS011;9940;47.252;8.696;2023-04-03T16:33:50;5.07;;;2.60;;
19587;SDS011;9940;47.252;8.696;2023-04-03T16:36:18;3.70;;;2.60;;
19587;SDS011;9940;47.252;8.696;2023-04-03T16:38:44;5.00;;;2.22;;
19587;SDS011;9940;47.252;8.696;2023-04-03T16:41:10;3.35;;;2.50;;
19587;SDS011;9940;47.252;8.696;2023-04-03T16:43:35;6.57;;;2.80;;
19587;SDS011;9940;47.252;8.696;2023-04-03T16:46:03;5.25;;;2.72;;
19587;SDS011;9940;47.252;8.696;2023-04-03T16:48:29;5.30;;;3.00;;
19587;SDS011;9940;47.252;8.696;2023-04-03T16:50:55;6.45;;;3.00;;
19587;SDS011;9940;47.252;8.696;2023-04-03T16:53:22;4.95;;;2.90;;
19587;SDS011;9940;47.252;8.696;2023-04-03T16:55:49;5.88;;;3.20;;
19587;SDS011;9940;47.252;8.696;2023-04-03T16:58:15;3.08;;;2.30;;
19587;SDS011;9940;47.252;8.696;2023-04-03T17:00:41;3.80;;;2.28;;
19587;SDS011;9940;47.252;8.696;2023-04-03T17:03:14;3.50;;;2.28;;
19587;SDS011;9940;47.252;8.696;2023-04-03T17:05:42;5.15;;;2.53;;
19587;SDS011;9940;47.252;8.696;2023-04-03T17:08:11;3.30;;;2.20;;
19587;SDS011;9940;47.252;8.696;2023-04-03T17:10:38;3.20;;;2.38;;
19587;SDS011;9940;47.252;8.696;2023-04-03T17:13:04;4.35;;;2.72;;
19587;SDS011;9940;47.252;8.696;2023-04-03T17:15:30;4.32;;;2.45;;